Time;durP1;ratioP1;P1;durP2;ratioP2;P2;SDS_P1;SDS_P2;PMS_P1;PMS_P2;Temp;Humidity;BMP_temperature;BMP_pressure;BME280_temperature;BME280_humidity;BME280_pressure;Samples;Min_cycle;Max_cycle;Signal;HPM_P1;HPM_P2
2022/02/14 00:00:56;;;;;;;1.57;1.17;;;21.70;52.90;;;;;;6200802;23;20367;-83
2022/02/14 00:03:23;;;;;;;1.50;1.20;;;21.70;52.90;;;;;;6174647;23;20478;-83
2022/02/14 00:09:43;;;;;;;1.70;1.30;;;21.70;52.90;;;;;;6162787;23;20406;-83
2022/02/14 00:15:34;;;;;;;1.23;1.10;;;21.60;52.90;;;;;;6084988;23;20398;-83
2022/02/14 00:18:01;;;;;;;1.40;1.17;;;21.60;52.90;;;;;;6059353;23;20383;-82
2022/02/14 00:20:29;;;;;;;1.20;0.93;;;21.60;52.90;;;;;;6060658;23;20397;-82
2022/02/14 00:22:56;;;;;;;1.83;1.30;;;21.70;52.90;;;;;;6060524;23;20461;-83
2022/02/14 00:25:29;;;;;;;1.40;1.10;;;21.60;52.90;;;;;;6059532;23;20422;-83
2022/02/14 00:27:57;;;;;;;1.30;1.07;;;21.60;52.90;;;;;;6061166;23;20686;-83
2022/02/14 00:30:25;;;;;;;1.70;1.20;;;21.60;52.90;;;;;;6059247;23;20386;-83
2022/02/14 00:32:51;;;;;;;1.40;1.10;;;21.70;52.90;;;;;;6081632;23;20426;-83
2022/02/14 00:35:23;;;;;;;1.33;1.20;;;21.70;52.90;;;;;;6057095;23;20461;-83
2022/02/14 00:37:50;;;;;;;1.50;1.00;;;21.70;53.00;;;;;;6057120;23;20829;-83
2022/02/14 00:40:20;;;;;;;1.10;0.90;;;21.70;52.90;;;;;;6056774;23;20383;-83
2022/02/14 00:42:48;;;;;;;1.40;1.10;;;21.60;52.90;;;;;;6057669;23;20410;-83
2022/02/14 00:45:16;;;;;;;1.50;1.10;;;21.60;52.80;;;;;;6080632;23;20438;-83
2022/02/14 00:47:42;;;;;;;1.50;1.00;;;21.70;52.90;;;;;;6057273;23;20386;-83
2022/02/14 00:50:08;;;;;;;1.27;0.90;;;21.60;52.80;;;;;;6196228;23;20359;-83
2022/02/14 00:52:36;;;;;;;1.37;1.20;;;21.70;52.90;;;;;;6174554;23;20372;-84
2022/02/14 00:55:04;;;;;;;3.00;1.63;;;21.60;52.80;;;;;;6201824;23;20422;-84
2022/02/14 00:57:30;;;;;;;1.10;1.00;;;21.60;52.80;;;;;;6175118;23;20390;-83
2022/02/14 00:59:56;;;;;;;1.03;0.90;;;21.70;52.90;;;;;;6176346;23;20390;-83
2022/02/14 01:02:23;;;;;;;1.20;1.00;;;21.70;52.80;;;;;;6176195;23;20159;-83
2022/02/14 01:04:49;;;;;;;1.20;1.10;;;21.70;52.80;;;;;;6202817;23;20398;-82
2022/02/14 01:07:15;;;;;;;1.30;1.20;;;21.60;52.80;;;;;;6176321;23;20481;-82
2022/02/14 01:09:42;;;;;;;1.40;1.20;;;21.70;52.80;;;;;;6202039;23;20410;-82
2022/02/14 01:12:09;;;;;;;1.87;1.10;;;21.60;52.80;;;;;;6175478;23;20405;-82
2022/02/14 01:14:35;;;;;;;1.10;0.97;;;21.60;52.70;;;;;;6202285;23;20363;-82
2022/02/14 01:17:01;;;;;;;2.20;1.17;;;21.60;52.70;;;;;;6176502;23;20437;-82
2022/02/14 01:19:27;;;;;;;1.20;1.00;;;21.60;52.70;;;;;;6191837;23;20423;-83
2022/02/14 01:21:56;;;;;;;1.27;1.00;;;21.60;52.70;;;;;;6146066;23;20384;-82
2022/02/14 01:24:22;;;;;;;1.07;0.97;;;21.60;52.70;;;;;;6146470;23;20411;-84
2022/02/14 01:26:48;;;;;;;1.07;0.90;;;21.60;52.70;;;;;;6145798;23;20412;-84
2022/02/14 01:29:15;;;;;;;1.57;1.00;;;21.60;52.70;;;;;;6172130;23;20195;-82
2022/02/14 01:31:41;;;;;;;1.20;1.00;;;21.60;52.70;;;;;;6171610;23;20364;-83
2022/02/14 01:34:10;;;;;;;1.20;0.93;;;21.60;52.70;;;;;;6145239;23;20368;-83
2022/02/14 01:36:38;;;;;;;1.50;1.00;;;21.60;52.80;;;;;;6171994;23;20419;-82
2022/02/14 01:39:08;;;;;;;1.20;1.10;;;21.60;52.70;;;;;;6144200;23;20525;-82
2022/02/14 01:41:34;;;;;;;1.57;1.10;;;21.60;52.70;;;;;;6171570;23;20440;-82
2022/02/14 01:44:02;;;;;;;1.47;1.20;;;21.60;52.70;;;;;;6145835;23;20372;-83
2022/02/14 01:46:31;;;;;;;1.30;1.20;;;21.60;52.70;;;;;;6172236;23;20442;-83
2022/02/14 01:49:07;;;;;;;1.00;0.80;;;21.60;52.70;;;;;;6145770;23;20391;-83
2022/02/14 01:51:38;;;;;;;1.40;1.00;;;21.60;52.70;;;;;;6171904;23;20398;-83
2022/02/14 01:54:05;;;;;;;1.00;0.90;;;21.60;52.70;;;;;;6145326;23;20372;-84
2022/02/14 01:56:31;;;;;;;1.10;0.83;;;21.60;52.70;;;;;;6144681;23;20415;-83
2022/02/14 01:58:57;;;;;;;1.20;0.87;;;21.60;52.70;;;;;;6172706;23;20454;-83
2022/02/14 02:01:44;;;;;;;1.23;1.03;;;21.60;52.70;;;;;;6147194;23;20383;-83
2022/02/14 02:17:23;;;;;;;1.27;1.10;;;21.50;52.80;;;;;;6027953;23;20404;-82
2022/02/14 02:19:53;;;;;;;1.20;1.07;;;21.50;52.80;;;;;;6019878;23;20435;-82
2022/02/14 02:25:12;;;;;;;1.10;0.87;;;21.50;52.80;;;;;;6056360;23;20406;-82
2022/02/14 02:27:42;;;;;;;1.10;0.90;;;21.50;52.80;;;;;;6056740;23;20422;-82
2022/02/14 02:30:18;;;;;;;1.63;1.00;;;21.60;52.90;;;;;;6056788;23;20387;-82
2022/02/14 02:32:45;;;;;;;0.90;0.80;;;21.50;52.80;;;;;;6057308;23;20364;-82
2022/02/14 02:35:20;;;;;;;1.40;1.00;;;21.50;52.80;;;;;;6033230;23;20399;-82
2022/02/14 02:37:49;;;;;;;1.30;0.90;;;21.60;52.90;;;;;;6056647;23;20694;-82
2022/02/14 02:40:16;;;;;;;1.13;0.90;;;21.60;52.80;;;;;;6056403;23;20858;-81
2022/02/14 02:42:45;;;;;;;1.07;0.90;;;21.60;52.90;;;;;;6056718;23;20387;-82
2022/02/14 02:45:15;;;;;;;1.20;1.00;;;21.60;52.80;;;;;;6173717;23;20431;-82
2022/02/14 02:47:42;;;;;;;1.10;0.87;;;21.60;52.80;;;;;;6149523;23;20376;-82
2022/02/14 02:50:18;;;;;;;1.03;0.90;;;21.60;52.80;;;;;;6149829;23;20380;-82
2022/02/14 02:52:44;;;;;;;1.07;0.87;;;21.60;52.80;;;;;;6175683;23;20390;-82
2022/02/14 02:55:12;;;;;;;1.37;1.10;;;21.60;52.70;;;;;;6148926;23;20376;-82
2022/02/14 02:57:38;;;;;;;1.53;1.00;;;21.60;52.70;;;;;;6173890;23;20164;-82
2022/02/14 03:00:05;;;;;;;1.20;1.00;;;21.60;52.70;;;;;;6174520;23;20375;-81
2022/02/14 03:02:33;;;;;;;1.97;1.20;;;21.60;52.70;;;;;;6150307;23;20154;-82
2022/02/14 03:05:02;;;;;;;0.90;0.80;;;21.60;52.70;;;;;;6174682;23;20677;-83
2022/02/14 03:07:32;;;;;;;1.00;0.90;;;21.60;52.80;;;;;;6150045;23;20380;-82
2022/02/14 03:09:58;;;;;;;1.10;1.00;;;21.60;52.70;;;;;;6149089;23;20400;-82
2022/02/14 03:12:24;;;;;;;1.37;1.10;;;21.60;52.70;;;;;;6148576;23;20831;-82
2022/02/14 03:18:14;;;;;;;1.20;0.90;;;21.60;52.70;;;;;;6173545;23;20367;-82
2022/02/14 03:20:45;;;;;;;1.40;1.00;;;21.60;52.70;;;;;;6170061;23;20395;-82
2022/02/14 03:23:12;;;;;;;1.10;0.93;;;21.50;52.70;;;;;;6175694;23;20360;-82
2022/02/14 03:25:41;;;;;;;1.27;0.90;;;21.60;52.80;;;;;;6175114;23;20428;-81
2022/02/14 03:28:13;;;;;;;2.20;1.03;;;21.50;52.70;;;;;;6175378;23;20375;-81
2022/02/14 03:30:42;;;;;;;1.10;0.90;;;21.50;52.70;;;;;;6174904;23;20447;-82
2022/02/14 03:33:08;;;;;;;0.90;0.80;;;21.50;52.70;;;;;;6175049;23;20380;-82
2022/02/14 03:35:38;;;;;;;1.10;0.80;;;21.60;52.70;;;;;;6174866;23;20383;-82
2022/02/14 03:38:07;;;;;;;1.10;0.83;;;21.50;52.70;;;;;;6176414;23;20408;-82
2022/02/14 03:40:34;;;;;;;1.10;1.00;;;21.50;52.70;;;;;;6175392;23;20463;-82
2022/02/14 03:43:16;;;;;;;1.00;0.90;;;21.50;52.70;;;;;;6173779;23;20380;-81
2022/02/14 03:45:55;;;;;;;;;;;;;;;;;;;;;
2022/02/14 03:48:25;;;;;;;1.07;0.97;;;21.50;52.70;;;;;;6175515;23;20352;-82
2022/02/14 03:50:52;;;;;;;1.13;0.90;;;21.60;52.70;;;;;;6172548;23;20920;-81
2022/02/14 03:53:23;;;;;;;1.00;0.80;;;21.50;52.70;;;;;;6173836;23;20380;-81
2022/02/14 03:55:53;;;;;;;1.13;0.80;;;21.60;52.70;;;;;;6173542;23;20387;-81
2022/02/14 03:58:20;;;;;;;1.23;0.90;;;21.50;52.70;;;;;;6174863;23;20368;-81
2022/02/14 04:00:46;;;;;;;1.20;1.00;;;21.50;52.70;;;;;;6173648;23;20411;-81
2022/02/14 04:03:13;;;;;;;1.20;1.00;;;21.50;52.70;;;;;;6173069;23;20395;-81
2022/02/14 04:05:41;;;;;;;1.03;0.90;;;21.50;52.70;;;;;;6172653;23;20426;-81
2022/02/14 04:08:07;;;;;;;1.27;1.00;;;21.50;52.70;;;;;;6172548;23;20379;-81
2022/02/14 04:10:34;;;;;;;0.90;0.80;;;21.50;52.60;;;;;;6172505;23;20387;-83
2022/02/14 04:13:00;;;;;;;1.10;0.97;;;21.50;52.70;;;;;;6169590;23;20380;-83
2022/02/14 04:15:29;;;;;;;0.90;0.70;;;21.50;52.60;;;;;;6171697;23;20386;-82
2022/02/14 04:17:56;;;;;;;1.03;0.80;;;21.60;52.70;;;;;;6173272;23;20191;-82
2022/02/14 04:20:25;;;;;;;1.13;0.90;;;21.50;52.60;;;;;;6172911;23;20712;-82
2022/02/14 04:23:01;;;;;;;1.43;0.90;;;21.50;52.60;;;;;;6174112;23;20384;-82
2022/02/14 04:25:31;;;;;;;1.00;0.70;;;21.50;52.60;;;;;;6149016;23;20422;-83
2022/02/14 04:28:03;;;;;;;1.17;1.07;;;21.60;53.30;;;;;;6176376;23;20380;-83
2022/02/14 04:30:40;;;;;;;1.00;0.90;;;21.50;52.60;;;;;;6181682;23;20411;-83
2022/02/14 04:33:18;;;;;;;1.10;0.80;;;21.50;52.60;;;;;;6181548;23;20443;-83
2022/02/14 04:35:46;;;;;;;1.27;0.87;;;21.50;52.60;;;;;;6183509;23;20351;-84
2022/02/14 04:38:26;;;;;;;1.40;1.00;;;21.50;52.60;;;;;;6158005;23;20398;-84
2022/02/14 04:41:10;;;;;;;1.13;0.80;;;21.50;52.60;;;;;;6183869;23;20388;-83
2022/02/14 04:44:00;;;;;;;1.00;0.80;;;21.50;52.70;;;;;;6179168;23;20367;-83
2022/02/14 04:46:30;;;;;;;1.20;1.00;;;21.50;52.70;;;;;;6184956;23;20398;-83
2022/02/14 04:49:00;;;;;;;1.00;0.80;;;21.50;52.70;;;;;;6184536;23;20376;-84
2022/02/14 04:51:32;;;;;;;1.00;0.80;;;21.50;52.70;;;;;;6183097;23;20415;-84
2022/02/14 04:54:02;;;;;;;1.30;1.00;;;21.50;52.70;;;;;;6174930;23;20387;-84
2022/02/14 04:56:38;;;;;;;1.20;1.00;;;21.50;52.70;;;;;;6184397;23;20431;-84
2022/02/14 04:59:16;;;;;;;0.93;0.73;;;21.50;52.70;;;;;;6183655;23;20348;-83
2022/02/14 05:01:47;;;;;;;1.00;0.90;;;21.50;52.70;;;;;;6181510;23;20398;-83
2022/02/14 05:04:17;;;;;;;1.37;1.00;;;21.50;52.70;;;;;;6178936;23;20398;-83
2022/02/14 05:06:52;;;;;;;0.90;0.80;;;21.50;52.70;;;;;;6180155;23;20504;-83
2022/02/14 05:09:25;;;;;;;1.67;1.00;;;21.50;52.70;;;;;;6181968;23;20368;-83
2022/02/14 05:11:53;;;;;;;1.00;0.80;;;21.50;52.70;;;;;;6178083;23;20388;-82
2022/02/14 05:14:22;;;;;;;1.47;1.07;;;21.50;52.70;;;;;;6177532;23;20375;-82
2022/02/14 05:16:52;;;;;;;1.20;0.90;;;21.50;52.70;;;;;;6177548;23;20371;-81
2022/02/14 05:19:21;;;;;;;2.97;1.63;;;21.50;52.70;;;;;;6176730;23;20403;-81
2022/02/14 05:21:58;;;;;;;1.17;0.97;;;21.50;52.70;;;;;;6176824;23;20387;-83
2022/02/14 05:24:29;;;;;;;1.13;0.87;;;21.40;52.60;;;;;;6175446;23;20379;-82
2022/02/14 05:27:10;;;;;;;1.10;0.70;;;21.40;52.60;;;;;;6175959;23;20446;-82
2022/02/14 05:29:42;;;;;;;1.07;0.80;;;21.50;52.70;;;;;;6152060;23;20392;-82
2022/02/14 05:32:15;;;;;;;1.00;0.80;;;21.50;52.70;;;;;;6176823;23;20403;-83
2022/02/14 05:34:42;;;;;;;1.57;1.00;;;21.40;52.60;;;;;;6176872;23;20372;-82
2022/02/14 05:37:10;;;;;;;1.10;0.90;;;21.40;52.60;;;;;;6176502;23;20383;-82
2022/02/14 05:39:44;;;;;;;1.00;0.80;;;21.40;52.60;;;;;;6177170;23;20379;-82
2022/02/14 05:42:21;;;;;;;1.20;0.90;;;21.40;52.70;;;;;;6176178;23;20384;-82
2022/02/14 05:48:14;;;;;;;1.40;1.00;;;21.40;52.70;;;;;;6174980;23;20379;-83
2022/02/14 05:50:42;;;;;;;1.30;0.83;;;21.40;52.70;;;;;;6172104;23;20376;-83
2022/02/14 05:53:10;;;;;;;1.30;0.90;;;21.40;52.70;;;;;;6174815;23;20400;-83
2022/02/14 05:55:46;;;;;;;1.20;0.90;;;21.40;52.70;;;;;;6175348;23;20404;-82
2022/02/14 05:58:24;;;;;;;1.20;0.83;;;21.40;52.70;;;;;;6176427;23;20391;-83
2022/02/14 06:01:00;;;;;;;1.27;0.97;;;21.40;52.70;;;;;;6175824;23;20364;-83
2022/02/14 06:03:29;;;;;;;0.90;0.80;;;21.40;52.70;;;;;;6176225;23;20376;-83
2022/02/14 06:05:56;;;;;;;1.00;0.87;;;21.40;52.70;;;;;;6176183;23;20416;-83
2022/02/14 06:08:43;;;;;;;1.30;1.00;;;21.40;52.70;;;;;;6176567;23;20380;-83
2022/02/14 06:11:21;;;;;;;0.90;0.70;;;21.50;52.80;;;;;;6177117;23;20411;-83
2022/02/14 06:13:52;;;;;;;0.90;0.70;;;21.40;52.70;;;;;;6174215;23;20717;-82
2022/02/14 06:16:21;;;;;;;0.90;0.80;;;21.40;52.70;;;;;;6171338;23;20384;-82
2022/02/14 06:18:52;;;;;;;1.37;0.90;;;21.40;52.70;;;;;;6175889;23;20391;-82
2022/02/14 06:21:18;;;;;;;2.10;1.00;;;21.50;52.70;;;;;;6178969;23;20430;-81
2022/02/14 06:23:43;;;;;;;1.00;0.83;;;21.50;52.70;;;;;;6204305;23;20726;-81
2022/02/14 06:26:10;;;;;;;0.97;0.73;;;21.50;52.70;;;;;;6178006;23;20182;-81
2022/02/14 06:28:40;;;;;;;1.23;0.90;;;21.50;52.70;;;;;;6153364;23;20380;-81
2022/02/14 06:31:07;;;;;;;0.90;0.70;;;21.40;52.60;;;;;;6177450;23;20379;-82
2022/02/14 06:33:34;;;;;;;1.47;0.87;;;21.50;52.70;;;;;;6179461;23;20379;-81
2022/02/14 06:35:59;;;;;;;1.23;0.90;;;21.50;52.70;;;;;;6178517;23;20387;-82
2022/02/14 06:38:28;;;;;;;0.90;0.80;;;21.50;52.70;;;;;;6178093;23;20379;-81
2022/02/14 06:40:55;;;;;;;0.90;0.70;;;21.50;52.70;;;;;;6177514;23;20211;-82
2022/02/14 06:43:22;;;;;;;1.10;0.80;;;21.50;52.70;;;;;;6178589;23;20386;-81
2022/02/14 06:45:49;;;;;;;0.90;0.80;;;21.50;52.70;;;;;;6154344;23;20506;-81
2022/02/14 06:48:18;;;;;;;1.00;0.73;;;21.50;52.70;;;;;;6177424;23;20427;-81
2022/02/14 06:50:46;;;;;;;1.10;0.77;;;21.50;52.70;;;;;;6178916;23;20407;-81
2022/02/14 06:53:15;;;;;;;0.83;0.80;;;21.60;52.70;;;;;;6178172;23;20379;-82
2022/02/14 06:59:03;;;;;;;1.40;0.90;;;21.60;52.70;;;;;;6203768;23;20362;-82
2022/02/14 07:01:29;;;;;;;1.07;0.80;;;21.60;52.70;;;;;;6177740;23;20379;-81
2022/02/14 07:03:58;;;;;;;1.00;0.77;;;21.60;52.70;;;;;;6177466;23;20390;-84
2022/02/14 07:06:24;;;;;;;1.10;0.90;;;21.60;52.60;;;;;;6178082;23;20477;-82
2022/02/14 07:08:54;;;;;;;1.20;0.80;;;21.60;52.60;;;;;;6177604;23;20375;-81
2022/02/14 07:11:21;;;;;;;0.93;0.83;;;21.60;52.60;;;;;;6204536;23;20371;-82
2022/02/14 07:13:48;;;;;;;0.90;0.77;;;21.60;52.60;;;;;;6178609;23;20394;-82
2022/02/14 07:16:14;;;;;;;1.00;0.80;;;21.70;52.60;;;;;;6177471;23;20379;-82
2022/02/14 07:18:43;;;;;;;1.00;0.73;;;21.70;52.60;;;;;;6177356;23;20379;-83
2022/02/14 07:21:22;;;;;;;1.10;0.80;;;21.70;52.70;;;;;;6176081;23;20477;-83
2022/02/14 07:23:50;;;;;;;1.20;0.90;;;21.70;52.60;;;;;;6176629;23;20410;-83
2022/02/14 07:26:16;;;;;;;0.90;0.70;;;21.70;52.60;;;;;;6202518;23;20410;-83
2022/02/14 07:29:33;;;;;;;1.20;0.90;;;21.70;52.50;;;;;;6203046;23;20395;-82
2022/02/14 07:32:10;;;;;;;1.00;0.77;;;21.70;52.60;;;;;;6195590;23;20473;-82
2022/02/14 07:34:39;;;;;;;1.00;0.83;;;21.70;52.50;;;;;;6202361;23;20366;-82
2022/02/14 07:37:45;;;;;;;1.00;0.83;;;21.70;52.50;;;;;;6176759;23;20410;-82
2022/02/14 07:40:14;;;;;;;1.33;0.80;;;21.80;52.60;;;;;;6118975;23;20379;-82
2022/02/14 07:42:47;;;;;;;1.00;0.80;;;21.80;52.50;;;;;;6202856;23;20359;-83
2022/02/14 07:45:43;;;;;;;1.00;0.80;;;21.80;52.60;;;;;;6175612;23;20382;-83
2022/02/14 07:48:10;;;;;;;1.00;0.70;;;21.80;52.50;;;;;;6174433;23;20418;-82
2022/02/14 07:51:25;;;;;;;;;;;;;;;;;;;;;
2022/02/14 07:57:26;;;;;;;0.90;0.70;;;21.80;52.60;;;;;;6144961;23;20386;-83
2022/02/14 08:00:09;;;;;;;0.93;0.70;;;21.80;52.60;;;;;;6203634;23;20351;-83
2022/02/14 08:02:54;;;;;;;1.10;0.77;;;21.80;52.60;;;;;;6177161;23;20422;-83
2022/02/14 08:08:18;;;;;;;1.00;0.80;;;21.80;52.60;;;;;;6203093;23;20375;-82
2022/02/14 08:10:57;;;;;;;0.90;0.80;;;21.80;52.60;;;;;;6177557;23;20374;-82
2022/02/14 08:14:02;;;;;;;1.00;0.80;;;21.80;52.60;;;;;;6177034;23;20367;-81
2022/02/14 08:20:02;;;;;;;0.97;0.70;;;21.80;52.60;;;;;;6193229;23;20447;-82
2022/02/14 08:22:29;;;;;;;0.90;0.70;;;21.80;52.60;;;;;;6147012;23;20414;-82
2022/02/14 08:28:24;;;;;;;;;;;;;;;;;;;;;
2022/02/14 08:30:59;;;;;;;1.00;0.73;;;21.80;52.60;;;;;;6028861;23;20369;-83
2022/02/14 08:33:37;;;;;;;0.90;0.70;;;21.80;52.60;;;;;;6004308;23;20435;-82
2022/02/14 08:36:30;;;;;;;0.90;0.70;;;21.80;52.60;;;;;;6003897;23;20380;-82
2022/02/14 08:39:23;;;;;;;;;;;;;;;;;;;;;
2022/02/14 08:41:49;;;;;;;0.90;0.70;;;21.80;52.60;;;;;;6027324;23;20385;-82
2022/02/14 08:44:28;;;;;;;;;;;;;;;;;;;;;
2022/02/14 08:47:03;;;;;;;1.00;0.70;;;21.80;52.60;;;;;;6027161;23;20450;-83
2022/02/14 08:49:43;;;;;;;1.13;0.90;;;21.80;53.20;;;;;;6002026;23;20404;-83
2022/02/14 08:56:17;;;;;;;1.10;0.80;;;21.80;52.60;;;;;;5833653;24;20459;-84
2022/02/14 08:58:45;;;;;;;1.20;0.80;;;21.80;52.60;;;;;;5865520;24;20500;-83
2022/02/14 09:08:14;;;;;;;0.90;0.77;;;21.80;52.60;;;;;;5806447;24;20395;-83
2022/02/14 09:11:23;;;;;;;0.93;0.60;;;21.80;52.60;;;;;;5806962;24;20453;-83
2022/02/14 09:13:53;;;;;;;1.10;0.77;;;21.80;52.60;;;;;;5806707;24;20429;-83
2022/02/14 09:17:26;;;;;;;;;;;;;;;;;;;;;
2022/02/14 09:20:46;;;;;;;;;;;;;;;;;;;;;
2022/02/14 09:48:11;;;;;;;0.90;0.60;;;21.80;52.70;;;;;;5809421;24;20426;-83
2022/02/14 09:50:54;;;;;;;1.13;0.70;;;21.70;52.60;;;;;;5829152;24;20383;-83
2022/02/14 09:53:31;;;;;;;1.10;0.80;;;21.70;52.70;;;;;;5807999;24;20387;-83
2022/02/14 09:59:19;;;;;;;1.00;0.80;;;21.80;52.70;;;;;;5915178;24;20401;-82
2022/02/14 10:01:52;;;;;;;0.90;0.60;;;21.70;52.60;;;;;;5892514;24;20715;-82
2022/02/14 10:04:19;;;;;;;0.80;0.67;;;21.80;52.70;;;;;;5915721;24;20425;-83
2022/02/14 10:06:51;;;;;;;1.00;0.70;;;21.80;52.70;;;;;;5892443;24;20435;-83
2022/02/14 10:09:24;;;;;;;0.87;0.70;;;21.80;52.60;;;;;;5895633;24;20384;-83
2022/02/14 10:11:57;;;;;;;1.10;0.90;;;21.80;52.60;;;;;;6003011;23;20384;-82
2022/02/14 10:14:26;;;;;;;1.00;0.70;;;21.80;52.60;;;;;;6003196;23;20395;-83
2022/02/14 10:17:04;;;;;;;0.97;0.80;;;21.80;52.60;;;;;;6025756;23;20381;-83
2022/02/14 10:19:35;;;;;;;1.07;0.70;;;21.80;52.60;;;;;;6044578;23;20388;-83
2022/02/14 10:22:06;;;;;;;1.10;0.70;;;21.80;52.60;;;;;;6151940;23;20392;-83
2022/02/14 10:24:40;;;;;;;0.83;0.60;;;21.80;52.70;;;;;;6146932;23;20412;-84
2022/02/14 10:27:17;;;;;;;1.00;0.80;;;21.80;52.60;;;;;;6173715;23;20408;-83
2022/02/14 10:29:45;;;;;;;0.90;0.70;;;21.80;52.60;;;;;;6147614;23;20375;-83
2022/02/14 10:32:21;;;;;;;1.30;0.70;;;21.80;52.60;;;;;;6173291;23;20369;-83
2022/02/14 10:35:09;;;;;;;0.90;0.70;;;21.80;52.60;;;;;;6147824;23;20457;-83
2022/02/14 10:37:44;;;;;;;1.07;0.70;;;21.80;52.60;;;;;;6147240;23;20372;-83
2022/02/14 10:40:25;;;;;;;0.80;0.60;;;21.80;52.60;;;;;;6147563;23;20375;-82
2022/02/14 10:42:51;;;;;;;0.97;0.70;;;21.80;52.60;;;;;;6147895;23;20423;-83
2022/02/14 10:45:36;;;;;;;1.00;0.80;;;21.80;52.60;;;;;;6148512;23;20372;-83
2022/02/14 10:48:30;;;;;;;1.00;0.80;;;21.80;52.60;;;;;;6146772;23;20380;-83
2022/02/14 10:51:32;;;;;;;1.43;1.03;;;21.80;52.60;;;;;;6148087;23;20376;-84
2022/02/14 10:54:06;;;;;;;0.90;0.80;;;21.80;52.60;;;;;;6071007;23;20372;-84
2022/02/14 10:56:50;;;;;;;;;;;;;;;;;;;;;
2022/02/14 11:05:51;;;;;;;1.10;0.80;;;21.80;52.60;;;;;;6148973;23;20407;-84
2022/02/14 11:08:35;;;;;;;1.10;0.70;;;21.80;53.20;;;;;;6146976;23;20378;-84
2022/02/14 11:11:08;;;;;;;0.90;0.70;;;21.80;52.70;;;;;;6173180;23;20416;-84
2022/02/14 11:13:58;;;;;;;1.30;0.90;;;21.80;52.60;;;;;;6145844;23;20420;-83
2022/02/14 11:16:27;;;;;;;0.93;0.70;;;21.80;52.60;;;;;;6123379;23;20384;-84
2022/02/14 11:19:11;;;;;;;1.00;0.80;;;21.80;52.60;;;;;;6146847;23;20384;-84
2022/02/14 11:21:59;;;;;;;1.00;0.80;;;21.80;52.50;;;;;;6146682;23;20388;-84
2022/02/14 11:24:32;;;;;;;1.13;0.80;;;21.80;52.50;;;;;;6172664;23;20427;-84
2022/02/14 11:27:15;;;;;;;1.10;0.87;;;21.80;52.50;;;;;;6145812;23;20736;-84
2022/02/14 11:30:17;;;;;;;0.90;0.70;;;21.80;52.40;;;;;;6145911;23;20372;-84
2022/02/14 11:33:01;;;;;;;1.10;0.70;;;21.80;52.40;;;;;;6121145;23;20384;-84
2022/02/14 11:35:27;;;;;;;0.90;0.60;;;21.80;52.40;;;;;;6125900;23;20434;-83
2022/02/14 11:38:06;;;;;;;0.90;0.77;;;21.80;52.40;;;;;;6147729;23;20384;-83
2022/02/14 11:40:45;;;;;;;1.10;0.80;;;21.80;52.40;;;;;;6124994;23;20392;-83
2022/02/14 11:43:28;;;;;;;0.90;0.70;;;21.80;52.30;;;;;;6174155;23;20411;-83
2022/02/14 11:46:30;;;;;;;1.13;0.70;;;21.80;52.40;;;;;;6147946;23;20422;-83
2022/02/14 11:49:33;;;;;;;0.80;0.60;;;21.80;52.40;;;;;;6147719;23;20395;-83
2022/02/14 11:52:02;;;;;;;0.97;0.70;;;21.80;52.40;;;;;;6003477;23;20395;-81
2022/02/14 12:04:31;;;;;;;1.10;0.90;;;21.80;52.50;;;;;;6027950;23;20340;-82
2022/02/14 12:07:36;;;;;;;1.33;0.70;;;21.70;52.50;;;;;;6003792;23;20423;-82
2022/02/14 12:14:27;;;;;;;;;;;;;;;;;;;;;
2022/02/14 12:20:34;;;;;;;1.00;0.90;;;21.70;52.70;;;;;;5998157;24;20436;-82
2022/02/14 12:23:06;;;;;;;0.83;0.60;;;21.70;52.60;;;;;;6009217;23;20400;-82
2022/02/14 12:25:38;;;;;;;1.00;0.70;;;21.70;52.60;;;;;;6026081;23;20451;-83
2022/02/14 12:28:17;;;;;;;0.90;0.70;;;21.70;52.60;;;;;;6055800;23;20375;-83
2022/02/14 12:30:49;;;;;;;1.00;0.70;;;21.70;52.60;;;;;;6146186;23;20472;-83
2022/02/14 12:33:21;;;;;;;1.20;0.83;;;21.80;52.60;;;;;;6147695;23;20372;-82
2022/02/14 12:35:52;;;;;;;1.20;0.87;;;21.80;52.60;;;;;;6145014;23;20402;-82
2022/02/14 12:42:09;;;;;;;0.90;0.70;;;21.80;52.50;;;;;;6167584;23;20381;-83
2022/02/14 12:44:38;;;;;;;0.87;0.60;;;21.80;52.50;;;;;;6202358;23;20356;-83
2022/02/14 12:47:05;;;;;;;1.13;0.80;;;21.70;52.50;;;;;;6153006;23;20422;-83
2022/02/14 12:49:43;;;;;;;1.30;0.70;;;21.70;52.50;;;;;;6177414;23;20377;-82
2022/02/14 12:52:11;;;;;;;0.97;0.70;;;21.70;52.50;;;;;;6179445;23;20398;-82
2022/02/14 13:01:31;;;;;;;0.90;0.70;;;21.70;52.40;;;;;;6093858;23;20366;-83
2022/02/14 13:04:30;;;;;;;0.90;0.80;;;21.70;52.50;;;;;;6070822;23;20414;-83
2022/02/14 13:07:33;;;;;;;1.00;0.70;;;21.70;52.50;;;;;;6093365;23;20434;-83
2022/02/14 13:10:28;;;;;;;0.90;0.70;;;21.70;52.50;;;;;;6015199;23;20415;-83
2022/02/14 13:13:04;;;;;;;0.80;0.60;;;21.70;52.50;;;;;;6037568;23;20376;-83
2022/02/14 13:15:56;;;;;;;0.90;0.70;;;21.70;52.50;;;;;;6015334;23;20416;-83
2022/02/14 13:18:50;;;;;;;1.00;0.70;;;21.70;52.50;;;;;;5992403;23;20419;-83
2022/02/14 13:21:27;;;;;;;1.20;0.80;;;21.70;52.50;;;;;;6015714;23;20384;-83
2022/02/14 13:24:05;;;;;;;1.20;0.70;;;21.70;52.50;;;;;;6032869;23;20431;-83
2022/02/14 13:30:18;;;;;;;0.80;0.60;;;21.70;52.50;;;;;;5955636;24;20424;-83
2022/02/14 13:37:15;;;;;;;1.00;0.60;;;21.70;52.50;;;;;;6183939;23;20520;-83
2022/02/14 13:40:55;;;;;;;1.10;0.80;;;21.70;52.60;;;;;;6065753;23;20453;-83
2022/02/14 13:49:36;;;;;;;0.90;0.70;;;21.60;52.60;;;;;;6237466;23;20424;-83
2022/02/14 13:52:24;;;;;;;1.00;0.70;;;21.60;52.60;;;;;;6208638;23;20378;-84
2022/02/14 13:55:10;;;;;;;1.00;0.80;;;21.60;52.50;;;;;;6235223;23;20351;-85
2022/02/14 13:57:42;;;;;;;1.07;0.80;;;21.70;52.60;;;;;;6209887;23;20366;-84
2022/02/14 14:00:39;;;;;;;0.90;0.70;;;21.70;52.60;;;;;;6206689;23;20381;-85
2022/02/14 14:03:10;;;;;;;1.60;0.73;;;21.70;52.60;;;;;;6235245;23;20422;-84
2022/02/14 14:05:40;;;;;;;1.17;0.70;;;21.70;52.60;;;;;;6207806;23;20426;-85
2022/02/14 14:08:08;;;;;;;1.00;0.80;;;21.70;52.60;;;;;;6208636;23;20378;-85
2022/02/14 14:10:58;;;;;;;1.30;0.80;;;21.70;52.60;;;;;;6208448;23;20375;-84
2022/02/14 14:13:53;;;;;;;0.97;0.80;;;21.70;52.60;;;;;;6209103;23;20378;-85
2022/02/14 14:16:20;;;;;;;1.03;0.80;;;21.70;52.50;;;;;;6159399;23;20382;-86
2022/02/14 14:18:58;;;;;;;0.80;0.67;;;21.70;52.50;;;;;;6235836;23;20371;-85
2022/02/14 14:21:27;;;;;;;1.73;0.70;;;21.70;52.50;;;;;;6233609;23;20382;-85
2022/02/14 14:23:57;;;;;;;1.00;0.70;;;21.70;52.50;;;;;;6210035;23;20378;-86
2022/02/14 14:26:25;;;;;;;0.90;0.70;;;21.70;52.60;;;;;;6203443;23;20448;-86
2022/02/14 14:29:04;;;;;;;;;;;;;;;;;;;;;
2022/02/14 14:31:30;;;;;;;0.90;0.60;;;21.70;52.50;;;;;;6211360;23;20378;-85
2022/02/14 14:34:06;;;;;;;1.00;0.70;;;21.80;52.60;;;;;;6235608;23;20358;-86
2022/02/14 14:36:38;;;;;;;1.00;0.70;;;21.80;52.60;;;;;;6236445;23;20463;-86
2022/02/14 14:39:14;;;;;;;1.03;0.77;;;21.80;52.50;;;;;;6208464;23;20421;-86
2022/02/14 14:41:43;;;;;;;1.30;0.77;;;21.80;52.50;;;;;;6208054;23;20381;-86
2022/02/14 14:44:11;;;;;;;1.00;0.83;;;21.80;52.50;;;;;;6208754;23;20386;-86
2022/02/14 14:46:41;;;;;;;0.90;0.70;;;21.80;52.50;;;;;;6209116;23;20453;-86
2022/02/14 14:49:46;;;;;;;0.80;0.63;;;21.80;52.50;;;;;;6233658;23;20381;-86
2022/02/14 14:52:12;;;;;;;1.00;0.70;;;21.90;52.50;;;;;;6208471;23;20810;-86
2022/02/14 14:54:47;;;;;;;0.80;0.60;;;21.90;52.50;;;;;;6234637;23;20362;-86
2022/02/14 14:57:23;;;;;;;1.10;0.70;;;21.90;52.50;;;;;;6209472;23;20409;-85
2022/02/14 14:59:53;;;;;;;0.90;0.70;;;21.90;52.50;;;;;;6209150;23;20370;-85
2022/02/14 15:05:21;;;;;;;0.90;0.70;;;21.90;52.50;;;;;;6237723;23;20365;-84
2022/02/14 15:07:48;;;;;;;0.97;0.70;;;21.90;52.50;;;;;;6194674;23;20864;-83
2022/02/14 15:10:16;;;;;;;2.40;0.80;;;21.90;52.50;;;;;;6210232;23;20382;-83
2022/02/14 15:12:46;;;;;;;1.87;0.67;;;22.00;52.50;;;;;;6236529;23;20389;-83
2022/02/14 15:15:16;;;;;;;1.00;0.80;;;22.00;52.50;;;;;;6209117;23;20378;-83
2022/02/14 15:17:49;;;;;;;2.27;0.70;;;22.00;52.50;;;;;;6237148;23;20381;-84
2022/02/14 15:28:05;;;;;;;1.00;0.70;;;22.00;52.50;;;;;;6086193;23;20435;-87
2022/02/14 15:30:37;;;;;;;1.20;0.60;;;22.00;52.50;;;;;;6085590;23;20415;-83
2022/02/14 15:33:12;;;;;;;3.30;0.70;;;22.00;52.60;;;;;;6088964;23;20387;-83
2022/02/14 15:36:23;;;;;;;1.10;0.67;;;22.00;52.60;;;;;;6059774;23;20383;-84
2022/02/14 15:38:59;;;;;;;0.90;0.60;;;22.10;52.70;;;;;;6083504;23;20409;-84
2022/02/14 15:41:26;;;;;;;0.90;0.63;;;22.10;52.70;;;;;;6060432;23;20362;-84
2022/02/14 15:43:59;;;;;;;1.10;0.77;;;22.10;52.60;;;;;;6059105;23;20417;-84
2022/02/14 15:46:26;;;;;;;1.00;0.67;;;22.10;52.70;;;;;;6059514;23;20431;-84
2022/02/14 15:49:02;;;;;;;1.20;0.73;;;22.10;52.60;;;;;;6060811;23;20432;-84
2022/02/14 15:51:32;;;;;;;1.00;0.70;;;22.10;52.60;;;;;;6126161;23;20770;-84
2022/02/14 15:54:06;;;;;;;1.20;0.73;;;22.10;52.60;;;;;;6197881;23;20462;-83
2022/02/14 15:56:38;;;;;;;0.97;0.70;;;22.10;52.60;;;;;;6206490;23;21035;-82
2022/02/14 15:59:09;;;;;;;1.20;0.60;;;22.20;52.60;;;;;;6207750;23;20351;-82